This is the latest recevied weather packets stored in our database for station/object N6XE-13. If no packets are shown the sender has not sent any weather packets the latest 10 day(s).
| Time | Temp. | Humidity | Pressure | Rain* | Wind** | Luminosity | Snow |
|---|---|---|---|---|---|---|---|
| 1777824006 | 16.11° C | 80% | 1014.7 hPa | 0 mm | - | - | - |
| 1777822206 | 15° C | 83% | 1014.4 hPa | 0 mm | - | - | - |
| 1777820406 | 13.89° C | 86% | 1014.3 hPa | 0 mm | - | - | - |
| 1777818606 | 13.33° C | 89% | 1014 hPa | 0 mm | - | - | - |
| 1777816806 | 12.78° C | 90% | 1013.5 hPa | 0 mm | - | - | - |
| 1777815005 | 12.22° C | 90% | 1012.9 hPa | 0 mm | - | - | - |
| 1777813205 | 12.78° C | 90% | 1012.6 hPa | 0 mm | - | - | - |
| 1777811405 | 12.78° C | 91% | 1012.5 hPa | 0 mm | - | - | - |
| 1777809605 | 12.22° C | 93% | 1012.4 hPa | 0 mm | - | - | - |
| 1777807805 | 12.22° C | 93% | 1012.4 hPa | 0 mm | - | - | - |
| 1777806005 | 12.78° C | 92% | 1012.6 hPa | 0 mm | - | - | - |
| 1777804205 | 12.78° C | 91% | 1012.2 hPa | 0 mm | - | - | - |
| 1777802405 | 12.78° C | 90% | 1012.2 hPa | 0 mm | - | - | - |
| 1777800605 | 13.33° C | 89% | 1012.5 hPa | 0 mm | - | - | - |
| 1777798806 | 13.33° C | 89% | 1012.8 hPa | 0 mm | - | - | - |
| 1777797006 | 13.33° C | 89% | 1013 hPa | 0 mm | - | - | - |
| 1777795206 | 13.33° C | 88% | 1013.1 hPa | 0 mm | - | - | - |
| 1777793406 | 13.33° C | 87% | 1013.1 hPa | 0 mm | - | - | - |
| 1777791606 | 13.33° C | 87% | 1013.4 hPa | 0 mm | - | - | - |
| 1777789806 | 13.89° C | 86% | 1013.4 hPa | 0 mm | - | - | - |
| 1777788005 | 13.89° C | 85% | 1013.5 hPa | 0 mm | - | - | - |
| 1777786205 | 13.89° C | 84% | 1013.5 hPa | 0 mm | - | - | - |
| 1777784406 | 14.44° C | 82% | 1013.4 hPa | 0 mm | - | - | - |
| 1777782611 | 15° C | 80% | 1013.2 hPa | 0 mm | - | - | - |
| 1777780805 | 16.11° C | 78% | 1012.9 hPa | 0 mm | - | - | - |
* Rain latest hour (hover to see other rain measurements)
** Current wind speed in m/s (hover to see current wind gust speed)